Terminal Aerodrome Forecast
Issued by NWS

Home | Current Version | Previous Version | Text Only | Print | Product List | Glossary On
Versions: 1 2 3 4 5 6 7 8 9 10 11 12 13 14
000
FTUS44 KCRP 290520
TAFALI
TAF
KALI 290520Z 2906/3006 13010KT P6SM VCSH SCT012 BKN028
     FM290700 13007KT 5SM BR VCTS SCT015CB BKN025
      TEMPO 2908/2912 VRB25G35KT 2SM TSRA OVC015CB
     FM291400 15015KT P6SM VCSH SCT025 BKN030
     FM292000 14016G23KT P6SM SCT025 BKN150
     FM300400 15009KT P6SM BKN017=

USA.gov is the U.S. government's official web portal to all federal, state and local government web resources and services.